• Join FlightAware (Why Join?)
  • Login
  • US Flag 
10:11PM EST


 

Airport Tracker/Info


-or-


 

Live Flight TrackerFlight Track Log ✈ THY2471 ✈ 31-Aug-2013 ✈ LTAF / ADA - LTBA / IST

Flight Track Log - Related Links

Times and Time Zones

All times are in EDT time to prevent confusion due to time zone crossing. See the THY2471 flight status page for this flight to view local times or setup timezone preferences in your user account.

Time Position Orientation Groundspeed Altitude Reporting Facility
EDT Latitude Longitude Course Direction KTS MPH feet Rate Location/Type
03:58PM 37.5902 34.3770 311° West  Level Estimated
03:59PM 37.6452 34.2941 310° West  Level Estimated
04:00PM 37.7001 34.2111 310° West  Level Estimated
04:01PM 37.7549 34.1280 310° West  Level Estimated
04:02PM 37.8096 34.0448 310° West  Level Estimated
04:03PM 37.8643 33.9614 310° West  Level Estimated
04:04PM 37.9190 33.8780 310° West  Level Estimated
04:05PM 37.9736 33.7944 310° West  Level Estimated
04:06PM 38.0281 33.7107 310° West  Level Estimated
04:07PM 38.0826 33.6268 310° West  Level Estimated
04:08PM 38.1370 33.5428 309° West  Level Estimated
04:09PM 38.1913 33.4587 309° West  Level Estimated
04:10PM 38.2456 33.3745 309° West  Level Estimated
04:11PM 38.2999 33.2902 309° West  Level Estimated
04:12PM 38.3540 33.2057 309° West  Level Estimated
04:13PM 38.4081 33.1211 309° West  Level Estimated
04:14PM 38.4622 33.0364 309° West  Level Estimated
04:15PM 38.5162 32.9515 309° West  Level Estimated
04:16PM 38.5701 32.8665 309° West  Level Estimated
04:17PM 38.6239 32.7814 309° West  Level Estimated
04:18PM 38.6777 32.6962 309° West  Level Estimated
04:19PM 38.7315 32.6108 309° West  Level Estimated
04:20PM 38.7851 32.5253 309° West  Level Estimated
04:21PM 38.8387 32.4397 309° West  Level Estimated
04:22PM 38.8923 32.3540 309° West  Level Estimated
04:23PM 38.9458 32.2681 309° West  Level Estimated
04:24PM 38.9992 32.1821 309° West  Level Estimated
04:25PM 39.0526 32.0959 309° West  Level Estimated
04:26PM 39.1059 32.0097 309° West  Level Estimated
04:27PM 39.1591 31.9233 308° West  Level Estimated
04:28PM 39.2123 31.8367 308° West  Level Estimated
04:29PM 39.2654 31.7501 308° West  Level Estimated
04:30PM 39.3184 31.6633 308° West  Level Estimated
04:31PM 39.3714 31.5763 308° West  Level Estimated
04:32PM 39.4243 31.4893 308° West  Level Estimated
04:33PM 39.4772 31.4021 308° West  Level Estimated
04:34PM 39.5299 31.3148 308° West  Level Estimated
04:35PM 39.5827 31.2273 308° West  Level Estimated
04:36PM 39.6353 31.1397 308° West  Level Estimated
04:37PM 39.6879 31.0520 308° West  Level Estimated
04:38PM 39.7404 30.9641 308° West  Level Estimated
04:39PM 39.7929 30.8762 308° West  Level Estimated
04:40PM 39.8452 30.7880 308° West  Level Estimated
04:41PM 39.8976 30.6998 308° West  Level Estimated
04:42PM 39.9498 30.6114 308° West  Level Estimated
04:43PM 40.0020 30.5229 308° West  Level Estimated
04:44PM 40.0541 30.4342 308° West  Level Estimated
04:45PM 40.1062 30.3454 307° West  Level Estimated
04:46PM 40.1581 30.2565 307° West  Level Estimated
04:47PM 40.2101 30.1674 307° West  Level Estimated
04:48PM 40.2619 30.0782 307° West  Level Estimated
04:49PM 40.3137 29.9888 307° West  Level Estimated
04:50PM 40.3654 29.8993 307° West  Level Estimated
04:51PM 40.4170 29.8097 307° West  Level Estimated
04:52PM 40.4686 29.7200 307° West  Level Estimated
04:53PM 40.5201 29.6301 307° West  Level Estimated
04:54PM 40.5715 29.5401 307° West  Level Estimated
04:55PM 40.6229 29.4499 307° West  Level Estimated
04:56PM 40.6742 29.3596 307° West  Level Estimated
04:57PM 40.7254 29.2691 307° West  Level Estimated
04:58PM 40.7766 29.1785 307° West  Level Estimated
04:59PM 40.8276 29.0878 307° West  Level Estimated
05:00PM 40.8786 28.9969 307° West  Level Estimated
05:01PM 40.9296 28.9059 307° West  Level Estimated
05:02PM 40.9769 28.8211 306° West  Level Estimated
05:03PM 40.9769 28.8211 21° North  Level Estimated
05:04PM 40.9769 28.8211 21° North  Level Estimated
05:05PM 40.9769 28.8211 21° North  Level Estimated
05:06PM 40.9769 28.8211 21° North  Level Estimated
05:07PM 40.9769 28.8211 21° North  Level Estimated
05:08PM 40.9769 28.8211 21° North  Level Estimated
05:09PM 40.9769 28.8211 21° North  Level Estimated
05:10PM 40.9769 28.8211 21° North  Level Estimated
05:11PM 40.9769 28.8211 21° North  Level Estimated
05:12PM 40.9769 28.8211 21° North  Level Estimated
05:13PM 40.9769 28.8211 21° North  Level Estimated
05:14PM 40.9769 28.8211 21° North  Level Estimated
05:15PM 40.9769 28.8211 21° North  Level Estimated
05:16PM 40.9769 28.8211 21° North  Level Estimated
05:17PM 40.9769 28.8211 21° North  Level Estimated
05:18PM 40.9769 28.8211 21° North  Level Estimated